Time;durP1;ratioP1;P1;durP2;ratioP2;P2;SDS_P1;SDS_P2;PMS_P1;PMS_P2;Temp;Humidity;BMP_temperature;BMP_pressure;BME280_temperature;BME280_humidity;BME280_pressure;Samples;Min_cycle;Max_cycle;Signal;HPM_P1;HPM_P2
2021/05/14 00:00:40;;;;;;;9.88;5.75;;;;;;;11.16;93.39;98615.23;1776188;80;21710;-71
2021/05/14 00:03:06;;;;;;;9.10;4.90;;;;;;;11.19;93.19;98613.17;1776339;80;20905;-71
2021/05/14 00:05:35;;;;;;;9.45;5.90;;;;;;;11.20;93.03;98612.83;1776326;80;21083;-70
2021/05/14 00:08:06;;;;;;;10.68;5.55;;;;;;;11.24;92.84;98616.50;1776290;80;20981;-71
2021/05/14 00:10:38;;;;;;;9.05;5.62;;;;;;;11.26;92.68;98621.66;1776260;80;21555;-71
2021/05/14 00:13:07;;;;;;;7.28;5.67;;;;;;;11.28;92.47;98623.48;1776403;80;21603;-71
2021/05/14 00:15:33;;;;;;;10.55;5.62;;;;;;;11.29;92.34;98621.54;1776302;80;20953;-70
2021/05/14 00:18:00;;;;;;;8.65;5.45;;;;;;;11.30;92.21;98618.45;1776340;80;21512;-70
2021/05/14 00:20:27;;;;;;;7.50;5.50;;;;;;;11.31;92.12;98622.00;1779335;79;20973;-70
2021/05/14 00:22:54;;;;;;;10.25;6.00;;;;;;;11.30;92.15;98614.33;1814400;78;20960;-71
2021/05/14 00:25:20;;;;;;;7.30;4.90;;;;;;;11.29;92.13;98611.35;1814310;79;20977;-72
2021/05/14 00:27:47;;;;;;;10.13;5.50;;;;;;;11.27;92.13;98612.27;1814422;78;21031;-71
2021/05/14 00:30:14;;;;;;;8.50;6.12;;;;;;;11.25;92.27;98613.98;1782820;79;21047;-71
2021/05/14 00:32:40;;;;;;;11.57;5.65;;;;;;;11.22;92.43;98605.05;1814395;78;20969;-71
2021/05/14 00:35:07;;;;;;;8.45;6.22;;;;;;;11.20;92.46;98607.34;1814551;78;21393;-70
2021/05/14 00:37:34;;;;;;;9.73;5.45;;;;;;;11.17;92.46;98609.39;1814326;79;20996;-70
2021/05/14 00:40:01;;;;;;;12.58;5.62;;;;;;;11.15;92.49;98608.13;1782868;79;21080;-70
2021/05/14 00:42:27;;;;;;;11.05;5.30;;;;;;;11.10;92.49;98607.78;1814506;79;21612;-71
2021/05/14 00:44:54;;;;;;;8.60;5.65;;;;;;;11.06;92.49;98602.74;1814408;78;21527;-71
2021/05/14 00:47:20;;;;;;;6.25;5.22;;;;;;;11.02;92.57;98612.00;1814404;79;20930;-70
2021/05/14 00:49:47;;;;;;;8.60;5.58;;;;;;;10.97;92.80;98610.88;1814412;79;20897;-71
2021/05/14 00:52:18;;;;;;;6.30;5.08;;;;;;;10.92;92.79;98614.65;1814390;78;20945;-71
2021/05/14 00:54:46;;;;;;;8.83;6.50;;;;;;;10.86;92.72;98607.77;1814570;78;21059;-71
2021/05/14 00:57:15;;;;;;;9.25;5.35;;;;;;;10.81;92.96;98597.01;1814542;78;20926;-70
2021/05/14 00:59:44;;;;;;;8.98;5.85;;;;;;;10.76;93.03;98602.14;1814285;78;21515;-71
2021/05/14 01:02:11;;;;;;;8.65;5.67;;;;;;;10.71;93.32;98602.93;1813455;79;20980;-70
2021/05/14 01:04:37;;;;;;;10.48;5.87;;;;;;;10.67;93.38;98595.94;1814486;78;20886;-70
2021/05/14 01:07:05;;;;;;;13.15;5.72;;;;;;;10.63;93.49;98596.95;1814425;78;21091;-71
2021/05/14 01:09:34;;;;;;;10.05;5.70;;;;;;;10.59;93.73;98591.34;1814432;78;21025;-70
2021/05/14 01:12:01;;;;;;;10.50;6.17;;;;;;;10.55;93.86;98589.05;1813774;79;21308;-70
2021/05/14 01:14:28;;;;;;;7.17;4.97;;;;;;;10.52;93.96;98593.27;1814352;78;20898;-70
2021/05/14 01:16:54;;;;;;;9.23;5.60;;;;;;;10.48;94.04;98590.97;1814483;78;20934;-70
2021/05/14 01:19:21;;;;;;;8.43;5.95;;;;;;;10.46;94.01;98591.87;1814307;79;21488;-70
2021/05/14 01:21:47;;;;;;;7.17;4.80;;;;;;;10.43;93.77;98593.92;1814402;78;20894;-70
2021/05/14 01:24:14;;;;;;;10.93;5.53;;;;;;;10.39;93.66;98592.22;1814399;78;20977;-71
2021/05/14 01:26:41;;;;;;;11.50;6.03;;;;;;;10.32;93.51;98589.22;1814273;79;21020;-71
2021/05/14 01:29:10;;;;;;;8.43;6.05;;;;;;;10.25;93.50;98596.62;1814440;78;20854;-70
2021/05/14 01:31:35;;;;;;;8.50;5.78;;;;;;;10.19;93.79;98594.65;1813966;79;21073;-70
2021/05/14 01:34:04;;;;;;;8.03;6.10;;;;;;;10.14;94.13;98594.02;1814202;78;21548;-71
2021/05/14 01:36:30;;;;;;;10.32;5.95;;;;;;;10.10;94.49;98586.23;1814367;78;20976;-69
2021/05/14 01:39:06;;;;;;;9.05;6.05;;;;;;;10.07;94.75;98586.33;1814442;78;21525;-69
2021/05/14 01:41:33;;;;;;;10.23;5.83;;;;;;;10.05;94.93;98582.32;1784556;79;21556;-70
2021/05/14 01:44:01;;;;;;;9.45;6.80;;;;;;;10.01;94.96;98577.27;1814245;79;21681;-71
2021/05/14 01:46:27;;;;;;;10.68;6.65;;;;;;;9.98;95.08;98577.94;1814325;78;20921;-72
2021/05/14 01:48:54;;;;;;;11.12;6.37;;;;;;;9.94;95.41;98575.06;1814262;79;20921;-72
2021/05/14 01:51:21;;;;;;;16.70;7.42;;;;;;;9.91;95.68;98577.91;1814316;78;21269;-72
2021/05/14 01:53:48;;;;;;;12.23;7.28;;;;;;;9.88;95.79;98570.35;1814389;78;20865;-72
2021/05/14 01:56:14;;;;;;;13.50;7.12;;;;;;;9.86;95.96;98569.08;1814470;79;21601;-73
2021/05/14 01:58:41;;;;;;;8.13;6.22;;;;;;;9.83;95.88;98573.86;1814729;78;21071;-74
2021/05/14 02:01:07;;;;;;;13.28;7.58;;;;;;;9.78;95.85;98572.72;1817670;78;20869;-73
2021/05/14 02:03:34;;;;;;;7.40;6.50;;;;;;;9.74;96.39;98565.73;1817885;78;20992;-72
2021/05/14 02:06:00;;;;;;;10.85;6.92;;;;;;;9.72;96.78;98558.41;1817868;78;20890;-73
2021/05/14 02:08:26;;;;;;;9.35;7.30;;;;;;;9.71;97.18;98559.55;1817845;78;21079;-74
2021/05/14 02:10:53;;;;;;;13.00;7.65;;;;;;;9.70;97.10;98561.25;1817651;78;21539;-74
2021/05/14 02:13:20;;;;;;;11.35;7.20;;;;;;;9.67;97.35;98565.46;1817728;79;20893;-74
2021/05/14 02:15:46;;;;;;;8.70;6.53;;;;;;;9.66;97.48;98561.11;1817644;79;20921;-74
2021/05/14 02:18:13;;;;;;;10.70;6.85;;;;;;;9.64;97.40;98561.21;1817849;79;20984;-73
2021/05/14 02:20:39;;;;;;;12.55;7.08;;;;;;;9.62;97.73;98567.02;1817854;79;21021;-73
2021/05/14 02:23:06;;;;;;;11.38;6.78;;;;;;;9.62;97.70;98562.11;1817705;78;20949;-74
2021/05/14 02:25:32;;;;;;;15.75;7.12;;;;;;;9.59;97.54;98560.27;1817853;78;20953;-74
2021/05/14 02:27:58;;;;;;;10.23;7.00;;;;;;;9.57;97.60;98554.32;1817670;79;20932;-74
2021/05/14 02:30:25;;;;;;;11.57;7.15;;;;;;;9.55;97.61;98553.05;1817802;78;21586;-74
2021/05/14 02:32:51;;;;;;;10.18;7.03;;;;;;;9.54;97.69;98548.14;1817935;78;21563;-74
2021/05/14 02:35:17;;;;;;;9.90;7.25;;;;;;;9.54;97.65;98543.23;1817686;78;20920;-74
2021/05/14 02:37:44;;;;;;;9.68;7.60;;;;;;;9.52;97.75;98545.50;1817790;78;20941;-74
2021/05/14 02:40:12;;;;;;;9.65;6.92;;;;;;;9.52;97.80;98545.50;1817799;79;20973;-73
2021/05/14 02:42:38;;;;;;;11.03;7.25;;;;;;;9.50;97.78;98543.09;1817676;79;20850;-74
2021/05/14 02:45:06;;;;;;;9.23;6.37;;;;;;;9.50;97.86;98547.77;1817863;78;21014;-74
2021/05/14 02:47:33;;;;;;;12.40;6.58;;;;;;;9.52;98.14;98548.23;1817678;79;20901;-73
2021/05/14 02:50:00;;;;;;;11.70;7.22;;;;;;;9.56;98.60;98550.55;1817817;78;20870;-74
2021/05/14 02:52:26;;;;;;;10.65;7.40;;;;;;;9.60;98.89;98546.00;1817681;79;20917;-74
2021/05/14 02:54:54;;;;;;;12.28;7.05;;;;;;;9.68;99.06;98546.52;1817708;79;20933;-74
2021/05/14 02:57:22;;;;;;;15.40;7.28;;;;;;;9.74;99.09;98550.66;1817785;79;20980;-73
2021/05/14 02:59:48;;;;;;;12.15;6.55;;;;;;;9.81;99.15;98554.23;1815812;79;20976;-74
2021/05/14 03:02:15;;;;;;;8.70;6.15;;;;;;;9.87;98.98;98547.39;1811580;78;20961;-73
2021/05/14 03:04:41;;;;;;;9.83;6.75;;;;;;;9.93;98.71;98550.16;1794802;79;20973;-73
2021/05/14 03:07:07;;;;;;;10.05;6.75;;;;;;;9.99;98.44;98556.23;1787444;80;20882;-72
2021/05/14 03:09:35;;;;;;;14.35;6.92;;;;;;;10.02;98.14;98559.11;1787384;80;21062;-73
2021/05/14 03:12:02;;;;;;;11.57;6.78;;;;;;;10.05;97.79;98555.70;1789125;79;20970;-73
2021/05/14 03:14:29;;;;;;;7.10;5.90;;;;;;;10.08;97.54;98558.34;1802416;79;21045;-72
2021/05/14 03:16:59;;;;;;;8.05;5.72;;;;;;;10.09;97.29;98559.95;1814281;78;20885;-73
2021/05/14 03:19:26;;;;;;;10.50;6.60;;;;;;;10.10;97.11;98558.23;1814359;79;20956;-73
2021/05/14 03:21:53;;;;;;;11.65;6.85;;;;;;;10.12;97.02;98561.45;1814359;78;21606;-72
2021/05/14 03:24:20;;;;;;;15.88;6.67;;;;;;;10.17;97.01;98561.81;1814189;79;21489;-72
2021/05/14 03:26:48;;;;;;;11.00;6.00;;;;;;;10.21;96.83;98562.20;1814391;78;20862;-72
2021/05/14 03:29:15;;;;;;;7.80;5.90;;;;;;;10.25;96.64;98566.44;1814416;79;20909;-72
2021/05/14 03:31:42;;;;;;;8.63;6.28;;;;;;;10.30;96.31;98564.06;1799824;78;21006;-72
2021/05/14 03:34:09;;;;;;;11.90;6.45;;;;;;;10.31;96.11;98562.36;1791600;79;21580;-72
2021/05/14 03:36:35;;;;;;;9.33;6.40;;;;;;;10.34;95.98;98556.77;1784616;80;20982;-72
2021/05/14 03:39:08;;;;;;;9.20;6.08;;;;;;;10.37;95.77;98556.89;1782248;79;20989;-73
2021/05/14 03:43:58;;;;;;;10.20;6.50;;;;;;;10.48;95.64;98562.72;1782236;80;20887;-73
2021/05/14 03:46:28;;;;;;;11.18;6.33;;;;;;;10.52;95.48;98556.22;1775650;80;21005;-73
2021/05/14 03:48:55;;;;;;;10.40;6.40;;;;;;;10.57;95.38;98555.20;1782081;80;21593;-73
2021/05/14 03:51:21;;;;;;;9.35;5.83;;;;;;;10.64;94.79;98562.31;1751860;80;20987;-71
2021/05/14 03:53:48;;;;;;;9.58;6.15;;;;;;;10.68;94.41;98548.14;1780974;80;21038;-72
2021/05/14 03:56:14;;;;;;;12.63;6.00;;;;;;;10.73;94.03;98553.41;1787297;80;20894;-72
2021/05/14 03:58:41;;;;;;;13.70;6.10;;;;;;;10.78;93.47;98552.39;1787368;80;21093;-73
2021/05/14 04:01:07;;;;;;;11.00;5.72;;;;;;;10.81;93.41;98552.52;1790702;80;20998;-71
2021/05/14 04:03:33;;;;;;;12.20;5.80;;;;;;;10.86;93.31;98559.16;1791392;79;21544;-71
2021/05/14 04:06:00;;;;;;;9.90;5.53;;;;;;;10.90;93.11;98548.29;1790731;80;20953;-72
2021/05/14 04:08:26;;;;;;;9.38;6.58;;;;;;;10.95;92.88;98545.89;1790254;79;21044;-74
2021/05/14 04:16:23;;;;;;;7.92;5.60;;;;;;;11.22;92.07;98537.75;1790360;79;22266;-74
2021/05/14 04:18:50;;;;;;;11.97;6.45;;;;;;;11.35;91.90;98529.49;1790264;80;21020;-74
2021/05/14 04:21:16;;;;;;;10.75;5.70;;;;;;;11.44;91.48;98526.85;1791323;78;20999;-69
2021/05/14 04:23:43;;;;;;;8.15;5.72;;;;;;;11.51;90.84;98527.64;1791249;80;20984;-72
2021/05/14 04:26:09;;;;;;;10.78;6.22;;;;;;;11.58;89.87;98531.95;1791249;80;21485;-69
2021/05/14 04:28:36;;;;;;;7.83;5.55;;;;;;;11.63;89.17;98537.78;1791178;80;21424;-71
2021/05/14 04:31:03;;;;;;;10.53;6.58;;;;;;;11.65;88.88;98533.55;1791195;80;20973;-70
2021/05/14 04:33:29;;;;;;;8.95;5.97;;;;;;;11.68;88.74;98527.34;1791181;79;20873;-71
2021/05/14 04:35:55;;;;;;;7.53;5.15;;;;;;;11.75;88.78;98526.19;1791282;79;20999;-71
2021/05/14 04:38:22;;;;;;;12.82;6.20;;;;;;;11.83;87.56;98518.41;1791211;79;21000;-72
2021/05/14 04:40:48;;;;;;;12.00;6.28;;;;;;;11.89;86.63;98514.84;1791030;80;20998;-73
2021/05/14 04:43:15;;;;;;;8.28;5.83;;;;;;;11.96;86.90;98516.99;1791318;79;20984;-70
2021/05/14 04:45:42;;;;;;;10.40;6.03;;;;;;;12.02;86.58;98519.72;1791155;80;20950;-73
2021/05/14 04:48:11;;;;;;;11.55;6.22;;;;;;;12.04;86.29;98519.59;1792926;78;21662;-73
2021/05/14 04:50:38;;;;;;;7.25;5.55;;;;;;;12.06;85.41;98520.63;1805241;78;20920;-72
2021/05/14 04:53:08;;;;;;;10.00;6.30;;;;;;;12.05;85.34;98523.14;1821501;78;20961;-72
2021/05/14 04:55:34;;;;;;;17.23;6.53;;;;;;;12.07;84.92;98522.22;1823963;78;20984;-75
2021/05/14 04:58:01;;;;;;;11.45;6.35;;;;;;;12.07;85.06;98520.84;1814033;78;21020;-73
2021/05/14 05:00:28;;;;;;;12.63;7.20;;;;;;;12.10;85.27;98528.40;1786967;80;21045;-72
2021/05/14 05:02:54;;;;;;;10.03;6.60;;;;;;;12.18;85.79;98520.54;1782361;80;21048;-73
2021/05/14 05:05:21;;;;;;;12.20;7.08;;;;;;;12.29;85.65;98523.02;1782401;80;20933;-73
2021/05/14 05:07:47;;;;;;;9.20;5.97;;;;;;;12.41;85.19;98518.02;1794330;79;21527;-73
2021/05/14 05:10:14;;;;;;;11.30;6.97;;;;;;;12.52;84.84;98519.91;1814392;79;20969;-71
2021/05/14 05:12:41;;;;;;;14.15;6.75;;;;;;;12.65;84.88;98525.34;1814408;78;21053;-70
2021/05/14 05:15:10;;;;;;;10.82;6.90;;;;;;;12.82;85.26;98520.27;1814309;78;20902;-69
2021/05/14 05:17:38;;;;;;;14.25;7.15;;;;;;;13.03;84.94;98517.23;1808845;79;20862;-71
2021/05/14 05:20:06;;;;;;;9.55;5.92;;;;;;;13.23;84.70;98510.45;1793321;79;20985;-69
2021/05/14 05:22:33;;;;;;;10.80;6.35;;;;;;;13.40;83.93;98510.83;1809819;79;20984;-69
2021/05/14 05:24:59;;;;;;;7.58;5.78;;;;;;;13.58;82.70;98514.57;1813175;78;21092;-70
2021/05/14 05:27:26;;;;;;;12.50;6.08;;;;;;;13.71;81.01;98514.66;1812295;79;20957;-71
2021/05/14 05:29:53;;;;;;;11.20;6.72;;;;;;;13.76;80.72;98510.24;1812092;79;20981;-70
2021/05/14 05:32:19;;;;;;;15.23;6.92;;;;;;;13.80;80.42;98513.88;1813800;79;21433;-70
2021/05/14 05:34:45;;;;;;;9.23;6.12;;;;;;;13.85;80.29;98510.83;1812706;78;21004;-70
2021/05/14 05:37:12;;;;;;;9.35;6.50;;;;;;;13.93;79.36;98514.51;1812459;79;21445;-70
2021/05/14 05:39:38;;;;;;;17.62;6.40;;;;;;;13.97;78.96;98513.42;1807366;79;21889;-69
2021/05/14 05:42:05;;;;;;;7.75;5.87;;;;;;;14.02;79.25;98505.44;1791668;79;20957;-69
2021/05/14 05:44:31;;;;;;;9.85;6.05;;;;;;;14.15;80.05;98500.78;1786262;79;21549;-69
2021/05/14 05:46:58;;;;;;;8.13;6.28;;;;;;;14.31;78.72;98496.55;1782307;80;20859;-69
2021/05/14 05:49:25;;;;;;;7.40;5.75;;;;;;;14.42;77.90;98489.30;1782342;80;21155;-69
2021/05/14 05:51:53;;;;;;;10.93;5.20;;;;;;;14.53;77.00;98491.64;1782260;80;20983;-69
2021/05/14 05:54:20;;;;;;;11.43;6.17;;;;;;;14.60;75.41;98492.94;1782269;80;20986;-68
2021/05/14 05:56:47;;;;;;;12.15;6.70;;;;;;;14.60;75.27;98501.22;1782159;80;20859;-69
2021/05/14 05:59:16;;;;;;;11.93;5.80;;;;;;;14.64;75.79;98499.33;1782305;80;20918;-68
2021/05/14 06:01:43;;;;;;;15.25;6.17;;;;;;;14.73;75.58;98491.59;1786910;80;21012;-68
2021/05/14 06:04:09;;;;;;;9.10;5.65;;;;;;;14.85;74.95;98491.41;1787789;80;20891;-69
2021/05/14 06:06:35;;;;;;;14.20;5.90;;;;;;;14.88;74.17;98488.48;1787733;80;20930;-69
2021/05/14 06:09:04;;;;;;;11.28;6.10;;;;;;;14.88;74.66;98500.92;1787777;80;20998;-69
2021/05/14 06:11:31;;;;;;;6.97;5.35;;;;;;;14.92;74.54;98500.40;1787869;80;20919;-69
2021/05/14 06:13:58;;;;;;;13.15;5.92;;;;;;;15.01;75.37;98503.12;1794926;78;21047;-69
2021/05/14 06:16:25;;;;;;;14.13;6.10;;;;;;;15.13;74.57;98502.09;1802783;78;20977;-69
2021/05/14 06:18:59;;;;;;;13.15;6.47;;;;;;;15.24;74.23;98503.66;1792114;78;21512;-69
2021/05/14 06:21:20;;;;;;;12.28;6.50;;;;;;;15.37;74.05;98486.48;1818993;78;21475;-69
2021/05/14 06:23:46;;;;;;;12.03;5.22;;;;;;;15.53;73.70;98490.46;1820102;78;20889;-69
2021/05/14 06:26:15;;;;;;;12.10;6.05;;;;;;;15.63;71.70;98489.81;1820081;78;21081;-69
2021/05/14 06:28:41;;;;;;;13.20;5.90;;;;;;;15.72;71.46;98490.91;1820101;78;20984;-69
2021/05/14 06:31:07;;;;;;;12.30;5.92;;;;;;;15.79;72.12;98486.27;1820078;78;20873;-69
2021/05/14 06:33:34;;;;;;;5.90;5.05;;;;;;;15.92;70.17;98480.50;1790598;78;20996;-69
2021/05/14 06:36:01;;;;;;;8.48;5.33;;;;;;;15.95;69.09;98475.59;1820027;78;20949;-69
2021/05/14 06:38:28;;;;;;;8.85;5.45;;;;;;;15.98;68.64;98478.41;1799237;78;21504;-70
2021/05/14 06:40:55;;;;;;;7.83;4.08;;;;;;;15.99;68.87;98469.52;1787560;80;21007;-71
2021/05/14 06:43:22;;;;;;;9.30;4.78;;;;;;;16.05;67.64;98468.80;1763825;80;21586;-69
2021/05/14 06:45:48;;;;;;;8.10;4.78;;;;;;;16.10;67.47;98458.77;1804074;78;20929;-69
2021/05/14 06:48:15;;;;;;;8.75;5.00;;;;;;;16.14;67.78;98458.81;1805185;78;20928;-69
2021/05/14 06:50:42;;;;;;;6.45;4.78;;;;;;;16.25;68.13;98456.93;1833666;78;21037;-69
2021/05/14 06:53:09;;;;;;;9.08;4.80;;;;;;;16.34;67.43;98459.39;1799144;78;20953;-69
2021/05/14 06:55:36;;;;;;;9.43;5.17;;;;;;;16.43;68.14;98460.69;1786969;78;20897;-69
2021/05/14 06:58:03;;;;;;;8.88;5.12;;;;;;;16.57;67.08;98462.00;1787671;80;20972;-71
2021/05/14 07:00:32;;;;;;;12.88;4.72;;;;;;;16.65;67.56;98469.23;1786365;80;20937;-71
2021/05/14 07:02:59;;;;;;;12.30;4.85;;;;;;;16.77;66.89;98471.69;1782060;80;21008;-71
2021/05/14 07:05:25;;;;;;;8.03;4.78;;;;;;;16.93;66.16;98462.52;1781981;80;20910;-71
2021/05/14 07:07:53;;;;;;;8.00;4.42;;;;;;;17.01;64.32;98461.98;1782166;80;20996;-74
2021/05/14 07:10:19;;;;;;;8.15;5.35;;;;;;;17.10;65.16;98464.64;1782200;80;21445;-75
2021/05/14 07:12:45;;;;;;;15.13;4.62;;;;;;;17.20;65.21;98458.17;1782142;80;21004;-73
2021/05/14 07:15:13;;;;;;;9.40;5.08;;;;;;;17.29;64.59;98458.03;1782195;80;21065;-75
2021/05/14 07:17:39;;;;;;;10.98;4.62;;;;;;;17.37;64.63;98457.45;1782109;79;21464;-69
2021/05/14 07:20:07;;;;;;;6.42;4.60;;;;;;;17.52;63.23;98464.69;1782081;80;20878;-70
2021/05/14 07:22:35;;;;;;;8.03;4.83;;;;;;;17.62;61.89;98460.38;1782378;80;21496;-72
2021/05/14 07:25:04;;;;;;;8.08;4.67;;;;;;;17.65;61.57;98458.21;1783775;80;20961;-71
2021/05/14 07:27:31;;;;;;;11.57;5.08;;;;;;;17.64;62.18;98464.95;1782786;80;20989;-71
2021/05/14 07:29:58;;;;;;;10.98;4.08;;;;;;;17.73;62.02;98462.05;1782045;80;21543;-71
2021/05/14 07:32:24;;;;;;;12.30;4.35;;;;;;;17.81;62.21;98469.23;1784337;80;20933;-69
2021/05/14 07:34:52;;;;;;;8.28;4.67;;;;;;;17.91;60.25;98475.22;1784171;80;20996;-70
2021/05/14 07:37:19;;;;;;;11.10;5.83;;;;;;;17.87;59.90;98466.88;1782560;80;20915;-71
2021/05/14 07:39:46;;;;;;;10.58;4.20;;;;;;;17.86;62.40;98474.20;1782364;80;21480;-71
2021/05/14 07:42:12;;;;;;;5.20;3.30;;;;;;;17.86;59.87;98468.66;1782418;79;20979;-70
2021/05/14 07:44:39;;;;;;;6.67;3.02;;;;;;;17.81;58.23;98472.01;1776302;80;20856;-69
2021/05/14 07:47:05;;;;;;;8.13;3.25;;;;;;;17.75;55.10;98464.44;1782263;80;20994;-73
2021/05/14 07:49:32;;;;;;;9.45;3.67;;;;;;;17.73;56.12;98470.38;1782419;80;21607;-72
2021/05/14 07:51:58;;;;;;;8.13;3.50;;;;;;;17.80;57.21;98468.23;1786218;80;21042;-71
2021/05/14 07:54:25;;;;;;;8.63;3.80;;;;;;;17.99;56.23;98471.26;1787388;79;21050;-69
2021/05/14 07:56:51;;;;;;;4.28;3.42;;;;;;;18.28;56.55;98467.39;1787662;80;21000;-69
2021/05/14 07:59:17;;;;;;;4.67;3.25;;;;;;;18.57;56.66;98463.25;1787466;79;20898;-71
2021/05/14 08:01:44;;;;;;;5.95;3.25;;;;;;;18.80;54.95;98458.16;1787341;80;20926;-71
2021/05/14 08:04:11;;;;;;;15.75;3.42;;;;;;;18.91;52.77;98456.77;1787381;80;21100;-72
2021/05/14 08:06:37;;;;;;;4.90;2.62;;;;;;;19.10;51.29;98454.34;1771971;79;20886;-70
2021/05/14 08:09:07;;;;;;;11.70;4.00;;;;;;;19.41;51.73;98461.66;1787694;80;21491;-71
2021/05/14 08:11:32;;;;;;;6.03;3.65;;;;;;;19.60;49.38;98457.08;1787086;78;20969;-71
2021/05/14 08:14:00;;;;;;;8.70;4.53;;;;;;;19.63;48.93;98459.65;1787557;79;21490;-70
2021/05/14 08:16:26;;;;;;;14.38;7.50;;;;;;;19.71;47.93;98469.54;1787440;79;21041;-70
2021/05/14 08:18:53;;;;;;;15.05;7.05;;;;;;;19.79;47.67;98469.72;1787555;79;21020;-70
2021/05/14 08:21:20;;;;;;;8.58;5.80;;;;;;;19.79;47.09;98469.72;1788686;78;21546;-69
2021/05/14 08:23:46;;;;;;;15.28;6.97;;;;;;;19.68;48.24;98472.53;1744866;82;20997;-70
2021/05/14 08:26:13;;;;;;;7.97;4.85;;;;;;;19.52;48.63;98470.02;1782150;80;20928;-70
2021/05/14 08:28:41;;;;;;;4.78;3.15;;;;;;;19.46;48.94;98473.77;1781457;80;21076;-69
2021/05/14 08:31:08;;;;;;;9.90;4.70;;;;;;;19.40;49.03;98473.39;1751750;80;21563;-69
2021/05/14 08:33:34;;;;;;;14.58;4.50;;;;;;;19.30;48.61;98474.80;1782040;80;20995;-68
2021/05/14 08:36:01;;;;;;;6.42;3.50;;;;;;;19.17;49.90;98475.00;1782202;80;21018;-69
2021/05/14 08:38:27;;;;;;;9.98;3.27;;;;;;;19.05;50.72;98475.64;1787944;79;20933;-70
2021/05/14 08:40:54;;;;;;;12.20;3.70;;;;;;;19.00;50.61;98478.81;1814357;78;21009;-68
2021/05/14 08:43:22;;;;;;;14.78;3.80;;;;;;;18.93;51.72;98485.77;1814251;79;20897;-69
2021/05/14 08:45:50;;;;;;;10.35;3.47;;;;;;;18.86;50.06;98480.20;1814322;78;21040;-69
2021/05/14 08:48:17;;;;;;;10.05;3.83;;;;;;;18.83;51.66;98482.38;1815384;79;20878;-67
2021/05/14 08:50:43;;;;;;;11.10;4.25;;;;;;;18.93;50.65;98489.14;1815709;79;20918;-69
2021/05/14 08:53:10;;;;;;;11.15;3.20;;;;;;;19.02;50.66;98484.77;1814174;79;21074;-69
2021/05/14 08:55:37;;;;;;;10.23;5.67;;;;;;;19.14;50.14;98487.13;1801555;79;20929;-69
2021/05/14 08:58:04;;;;;;;10.28;3.87;;;;;;;19.20;49.37;98489.51;1779860;79;20963;-69
2021/05/14 09:00:31;;;;;;;10.48;4.92;;;;;;;19.20;49.03;98486.73;1814211;78;21496;-69
2021/05/14 09:02:57;;;;;;;10.43;6.17;;;;;;;19.22;48.44;98486.52;1819611;78;20901;-69
2021/05/14 09:05:32;;;;;;;10.35;4.97;;;;;;;19.25;48.70;98481.55;1819961;78;20988;-69
2021/05/14 09:08:00;;;;;;;5.53;3.42;;;;;;;19.26;49.58;98479.56;1820026;78;20886;-70
2021/05/14 09:10:29;;;;;;;8.73;4.78;;;;;;;19.28;49.99;98482.15;1820005;78;21405;-70
2021/05/14 09:12:55;;;;;;;15.48;8.53;;;;;;;19.33;50.25;98481.74;1819101;78;20992;-72
2021/05/14 09:15:36;;;;;;;15.23;6.50;;;;;;;19.36;49.57;98482.94;1820088;78;21032;-70
2021/05/14 09:18:17;;;;;;;30.37;5.45;;;;;;;19.32;49.65;98484.93;1818986;78;22162;-70
2021/05/14 09:20:58;;;;;;;20.37;3.75;;;;;;;19.30;49.11;98488.70;1819365;78;20972;-71
2021/05/14 09:23:32;;;;;;;8.70;4.50;;;;;;;19.11;48.94;98491.30;1820030;78;21520;-70
2021/05/14 09:26:15;;;;;;;12.20;6.78;;;;;;;18.92;49.71;98484.17;1819844;78;21503;-71
2021/05/14 09:28:50;;;;;;;43.30;27.70;;;;;;;18.90;48.99;98481.59;1820003;78;21637;-70
2021/05/14 09:31:24;;;;;;;14.53;4.87;;;;;;;18.87;48.97;98491.52;1811823;78;21119;-70
2021/05/14 09:33:55;;;;;;;6.78;2.60;;;;;;;18.81;48.40;98493.11;1812376;78;20890;-70
2021/05/14 09:36:31;;;;;;;9.50;2.80;;;;;;;18.75;48.69;98484.36;1819573;78;20965;-72
2021/05/14 09:39:06;;;;;;;9.30;3.27;;;;;;;18.78;49.37;98491.91;1787742;80;20891;-70
2021/05/14 09:41:44;;;;;;;7.87;2.47;;;;;;;18.97;47.69;98486.56;1787678;80;21568;-74
2021/05/14 09:44:16;;;;;;;11.53;3.80;;;;;;;19.27;46.40;98483.94;1787497;80;21067;-71
2021/05/14 09:46:54;;;;;;;7.30;2.60;;;;;;;19.49;46.33;98482.72;1787484;80;20986;-70
2021/05/14 09:49:22;;;;;;;6.50;2.58;;;;;;;19.55;46.35;98481.14;1798166;78;21518;-71
2021/05/14 09:52:04;;;;;;;10.78;3.30;;;;;;;19.42;46.22;98486.30;1815025;78;20969;-70
2021/05/14 09:54:36;;;;;;;7.37;2.42;;;;;;;19.22;46.18;98481.56;1820197;78;21527;-70
2021/05/14 09:57:25;;;;;;;14.43;3.25;;;;;;;18.92;46.21;98475.83;1809158;78;21046;-70
2021/05/14 09:59:37;;;;;;;13.60;5.47;;;;;;;18.75;47.12;98478.80;1791049;78;20997;-70
2021/05/14 10:02:04;;;;;;;7.97;4.25;;;;;;;18.70;47.59;98470.05;1775232;79;21616;-70
2021/05/14 10:04:30;;;;;;;6.25;3.87;;;;;;;18.69;47.48;98462.31;1757654;81;21479;-70
2021/05/14 10:06:58;;;;;;;8.75;2.95;;;;;;;18.67;48.87;98475.02;1756465;81;20921;-71
2021/05/14 10:09:25;;;;;;;8.83;2.20;;;;;;;18.64;47.39;98476.59;1756422;80;21068;-73
2021/05/14 10:11:52;;;;;;;3.50;2.30;;;;;;;18.63;46.53;98465.88;1756496;81;21611;-74
2021/05/14 10:14:19;;;;;;;9.88;2.17;;;;;;;18.67;43.88;98468.06;1757176;81;20957;-75
2021/05/14 10:16:45;;;;;;;8.35;2.30;;;;;;;18.71;42.70;98468.27;1756338;81;21027;-72
2021/05/14 10:19:12;;;;;;;4.70;1.85;;;;;;;18.72;40.91;98470.45;1756136;81;21064;-71
2021/05/14 10:21:44;;;;;;;6.85;1.98;;;;;;;18.74;39.72;98473.63;1756994;81;21115;-70
2021/05/14 10:24:11;;;;;;;6.58;1.67;;;;;;;18.81;37.60;98470.86;1731554;81;26734;-70
2021/05/14 10:26:38;;;;;;;8.38;1.22;;;;;;;18.87;36.04;98467.89;1740670;81;20922;-70
2021/05/14 10:29:13;;;;;;;1.92;1.35;;;;;;;18.93;35.40;98473.25;1757775;81;20964;-70
2021/05/14 10:31:46;;;;;;;4.95;1.15;;;;;;;19.00;35.01;98476.03;1757711;81;20868;-69
2021/05/14 10:34:14;;;;;;;6.05;2.17;;;;;;;19.06;35.15;98476.43;1757870;81;22186;-69
2021/05/14 10:36:43;;;;;;;8.80;1.92;;;;;;;19.06;35.42;98474.41;1756612;81;21016;-69
2021/05/14 10:39:20;;;;;;;3.20;1.62;;;;;;;19.11;34.79;98476.00;1733378;81;20887;-69
2021/05/14 10:42:09;;;;;;;5.00;1.35;;;;;;;19.20;33.95;98477.78;1756103;80;21523;-68
2021/05/14 10:44:48;;;;;;;4.55;1.30;;;;;;;19.23;34.59;98476.19;1744355;82;20929;-68
2021/05/14 10:47:32;;;;;;;3.30;1.30;;;;;;;19.16;32.49;98483.95;1752570;81;21169;-74
2021/05/14 10:50:09;;;;;;;2.40;1.47;;;;;;;19.07;32.56;98485.73;1685935;85;20941;-71
2021/05/14 10:52:33;;;;;;;1.65;1.10;;;;;;;18.99;30.28;98475.04;1723967;82;21266;-71
2021/05/14 10:54:59;;;;;;;6.20;1.12;;;;;;;18.89;29.25;98472.45;1736458;82;21497;-71
2021/05/14 10:57:45;;;;;;;6.60;1.35;;;;;;;18.85;29.89;98477.81;1737120;82;20996;-70
2021/05/14 11:00:31;;;;;;;6.65;1.77;;;;;;;18.85;29.05;98475.83;1720393;83;21075;-71
2021/05/14 11:03:14;;;;;;;10.00;2.02;;;;;;;18.87;30.28;98483.18;1717430;81;20981;-70
2021/05/14 11:05:48;;;;;;;24.50;10.93;;;;;;;18.91;30.21;98485.36;1713445;83;21603;-74
2021/05/14 11:08:37;;;;;;;8.88;4.75;;;;;;;19.02;30.84;98486.76;1715417;83;21560;-71
2021/05/14 11:11:06;;;;;;;4.65;2.20;;;;;;;19.24;30.00;98486.92;1715149;83;21010;-71
2021/05/14 11:13:47;;;;;;;5.03;1.42;;;;;;;19.41;27.11;98495.05;1707617;83;21116;-71
2021/05/14 11:16:40;;;;;;;3.25;1.32;;;;;;;19.49;28.23;98481.33;1694043;84;21615;-70
2021/05/14 11:19:17;;;;;;;5.12;2.00;;;;;;;19.71;27.18;98480.08;1694904;84;21019;-70
2021/05/14 11:22:14;;;;;;;34.38;17.32;;;;;;;19.91;26.17;98481.81;1672619;84;20942;-70
2021/05/14 11:24:51;;;;;;;3.05;1.60;;;;;;;20.03;25.71;98484.15;1724371;83;21044;-71
2021/05/14 11:27:31;;;;;;;7.22;2.37;;;;;;;19.95;26.53;98479.02;1724478;83;21788;-70
2021/05/14 11:30:07;;;;;;;4.00;1.17;;;;;;;19.80;28.18;98481.05;1724240;83;21552;-71
2021/05/14 11:32:44;;;;;;;4.00;1.82;;;;;;;19.71;27.40;98475.91;1724452;83;20889;-76
2021/05/14 11:35:24;;;;;;;44.95;23.87;;;;;;;19.57;28.77;98477.36;1724315;83;21071;-70
2021/05/14 11:37:56;;;;;;;4.97;2.58;;;;;;;19.48;29.35;98481.12;1707336;83;21033;-70
2021/05/14 11:40:28;;;;;;;11.00;5.03;;;;;;;19.47;29.28;98479.54;1715039;83;21138;-71
2021/05/14 11:43:00;;;;;;;53.35;25.57;;;;;;;19.36;29.77;98479.55;1731315;82;21046;-69